sensor_id;sensor_type;location;lat;lon;timestamp;P1;durP1;ratioP1;P2;durP2;ratioP2
11481;SDS011;5797;51.662;6.748;2023-12-20T00:01:13;20.63;;;7.20;;
11481;SDS011;5797;51.662;6.748;2023-12-20T00:03:42;14.27;;;7.23;;
11481;SDS011;5797;51.662;6.748;2023-12-20T00:06:10;16.57;;;7.57;;
11481;SDS011;5797;51.662;6.748;2023-12-20T00:08:39;15.13;;;7.53;;
11481;SDS011;5797;51.662;6.748;2023-12-20T00:11:08;22.33;;;7.63;;
11481;SDS011;5797;51.662;6.748;2023-12-20T00:13:36;17.80;;;6.80;;
11481;SDS011;5797;51.662;6.748;2023-12-20T00:16:05;14.23;;;5.63;;
11481;SDS011;5797;51.662;6.748;2023-12-20T00:18:35;11.30;;;5.50;;
11481;SDS011;5797;51.662;6.748;2023-12-20T00:21:05;13.00;;;6.17;;
11481;SDS011;5797;51.662;6.748;2023-12-20T00:23:33;12.57;;;5.33;;
11481;SDS011;5797;51.662;6.748;2023-12-20T00:26:02;10.67;;;4.70;;
11481;SDS011;5797;51.662;6.748;2023-12-20T00:28:31;12.67;;;5.10;;
11481;SDS011;5797;51.662;6.748;2023-12-20T00:31:00;14.90;;;5.17;;
11481;SDS011;5797;51.662;6.748;2023-12-20T00:33:29;13.63;;;5.80;;
11481;SDS011;5797;51.662;6.748;2023-12-20T00:35:59;14.07;;;5.17;;
11481;SDS011;5797;51.662;6.748;2023-12-20T00:38:28;13.27;;;5.43;;
11481;SDS011;5797;51.662;6.748;2023-12-20T00:40:57;14.07;;;6.40;;
11481;SDS011;5797;51.662;6.748;2023-12-20T00:43:25;14.23;;;5.27;;
11481;SDS011;5797;51.662;6.748;2023-12-20T00:45:54;12.73;;;6.10;;
11481;SDS011;5797;51.662;6.748;2023-12-20T00:48:23;12.27;;;5.20;;
11481;SDS011;5797;51.662;6.748;2023-12-20T00:50:54;14.70;;;5.83;;
11481;SDS011;5797;51.662;6.748;2023-12-20T00:53:24;14.70;;;6.03;;
11481;SDS011;5797;51.662;6.748;2023-12-20T00:55:52;17.17;;;5.53;;
11481;SDS011;5797;51.662;6.748;2023-12-20T00:58:21;16.63;;;5.47;;
11481;SDS011;5797;51.662;6.748;2023-12-20T01:00:50;13.90;;;5.90;;
11481;SDS011;5797;51.662;6.748;2023-12-20T01:03:19;13.50;;;5.53;;
11481;SDS011;5797;51.662;6.748;2023-12-20T01:05:48;11.17;;;5.33;;
11481;SDS011;5797;51.662;6.748;2023-12-20T01:08:16;14.90;;;5.97;;
11481;SDS011;5797;51.662;6.748;2023-12-20T01:10:46;13.27;;;5.57;;
11481;SDS011;5797;51.662;6.748;2023-12-20T01:13:15;15.63;;;5.57;;
11481;SDS011;5797;51.662;6.748;2023-12-20T01:15:44;12.03;;;5.37;;
11481;SDS011;5797;51.662;6.748;2023-12-20T01:18:12;18.40;;;5.70;;
11481;SDS011;5797;51.662;6.748;2023-12-20T01:20:41;13.57;;;6.50;;
11481;SDS011;5797;51.662;6.748;2023-12-20T01:23:10;12.43;;;6.13;;
11481;SDS011;5797;51.662;6.748;2023-12-20T01:25:39;16.10;;;6.17;;
11481;SDS011;5797;51.662;6.748;2023-12-20T01:28:09;9.93;;;5.33;;
11481;SDS011;5797;51.662;6.748;2023-12-20T01:30:39;15.00;;;5.83;;
11481;SDS011;5797;51.662;6.748;2023-12-20T01:33:08;17.80;;;7.03;;
11481;SDS011;5797;51.662;6.748;2023-12-20T01:35:36;13.00;;;5.83;;
11481;SDS011;5797;51.662;6.748;2023-12-20T01:38:05;15.00;;;5.70;;
11481;SDS011;5797;51.662;6.748;2023-12-20T01:40:34;17.03;;;6.10;;
11481;SDS011;5797;51.662;6.748;2023-12-20T01:43:06;10.80;;;4.73;;
11481;SDS011;5797;51.662;6.748;2023-12-20T01:45:37;15.40;;;5.23;;
11481;SDS011;5797;51.662;6.748;2023-12-20T01:48:07;9.97;;;5.53;;
11481;SDS011;5797;51.662;6.748;2023-12-20T01:50:37;13.80;;;4.93;;
11481;SDS011;5797;51.662;6.748;2023-12-20T01:53:07;14.17;;;5.40;;
11481;SDS011;5797;51.662;6.748;2023-12-20T01:55:36;10.50;;;4.90;;
11481;SDS011;5797;51.662;6.748;2023-12-20T01:58:08;9.20;;;4.33;;
11481;SDS011;5797;51.662;6.748;2023-12-20T02:00:39;14.83;;;4.90;;
11481;SDS011;5797;51.662;6.748;2023-12-20T02:03:08;11.30;;;4.33;;
11481;SDS011;5797;51.662;6.748;2023-12-20T02:05:37;12.83;;;5.00;;
11481;SDS011;5797;51.662;6.748;2023-12-20T02:08:07;15.70;;;4.80;;
11481;SDS011;5797;51.662;6.748;2023-12-20T02:10:35;19.40;;;5.50;;
11481;SDS011;5797;51.662;6.748;2023-12-20T02:13:04;15.93;;;4.63;;
11481;SDS011;5797;51.662;6.748;2023-12-20T02:15:33;10.77;;;4.20;;
11481;SDS011;5797;51.662;6.748;2023-12-20T02:18:05;7.17;;;3.87;;
11481;SDS011;5797;51.662;6.748;2023-12-20T02:20:34;14.17;;;4.63;;
11481;SDS011;5797;51.662;6.748;2023-12-20T02:23:04;8.73;;;3.90;;
11481;SDS011;5797;51.662;6.748;2023-12-20T02:25:33;9.43;;;4.23;;
11481;SDS011;5797;51.662;6.748;2023-12-20T02:28:02;15.87;;;4.13;;
11481;SDS011;5797;51.662;6.748;2023-12-20T02:30:31;7.90;;;3.80;;
11481;SDS011;5797;51.662;6.748;2023-12-20T02:32:59;13.13;;;3.90;;
11481;SDS011;5797;51.662;6.748;2023-12-20T02:35:29;13.67;;;4.97;;
11481;SDS011;5797;51.662;6.748;2023-12-20T02:37:58;12.77;;;5.33;;
11481;SDS011;5797;51.662;6.748;2023-12-20T02:40:28;12.97;;;5.27;;
11481;SDS011;5797;51.662;6.748;2023-12-20T02:42:57;14.17;;;5.47;;
11481;SDS011;5797;51.662;6.748;2023-12-20T02:45:26;19.23;;;6.30;;
11481;SDS011;5797;51.662;6.748;2023-12-20T02:47:55;13.90;;;6.40;;
11481;SDS011;5797;51.662;6.748;2023-12-20T02:50:24;18.57;;;6.43;;
11481;SDS011;5797;51.662;6.748;2023-12-20T02:52:53;17.63;;;6.60;;
11481;SDS011;5797;51.662;6.748;2023-12-20T02:55:22;21.40;;;7.20;;
11481;SDS011;5797;51.662;6.748;2023-12-20T02:57:52;13.30;;;6.87;;
11481;SDS011;5797;51.662;6.748;2023-12-20T03:00:21;16.60;;;6.37;;
11481;SDS011;5797;51.662;6.748;2023-12-20T03:02:50;17.37;;;7.47;;
11481;SDS011;5797;51.662;6.748;2023-12-20T03:05:18;13.73;;;6.47;;
11481;SDS011;5797;51.662;6.748;2023-12-20T03:07:47;15.17;;;6.40;;
11481;SDS011;5797;51.662;6.748;2023-12-20T03:10:16;14.60;;;7.10;;
11481;SDS011;5797;51.662;6.748;2023-12-20T03:12:49;12.87;;;5.83;;
11481;SDS011;5797;51.662;6.748;2023-12-20T03:15:20;12.67;;;5.97;;
11481;SDS011;5797;51.662;6.748;2023-12-20T03:17:48;13.70;;;6.20;;
11481;SDS011;5797;51.662;6.748;2023-12-20T03:20:17;19.00;;;6.07;;
11481;SDS011;5797;51.662;6.748;2023-12-20T03:22:46;13.47;;;5.67;;
11481;SDS011;5797;51.662;6.748;2023-12-20T03:25:15;19.30;;;6.17;;
11481;SDS011;5797;51.662;6.748;2023-12-20T03:27:43;13.13;;;5.20;;
11481;SDS011;5797;51.662;6.748;2023-12-20T03:30:14;12.67;;;5.30;;
11481;SDS011;5797;51.662;6.748;2023-12-20T03:32:43;17.33;;;4.87;;
11481;SDS011;5797;51.662;6.748;2023-12-20T03:35:12;11.57;;;5.03;;
11481;SDS011;5797;51.662;6.748;2023-12-20T03:37:41;15.13;;;5.37;;
11481;SDS011;5797;51.662;6.748;2023-12-20T03:40:10;12.60;;;5.03;;
11481;SDS011;5797;51.662;6.748;2023-12-20T03:42:39;14.83;;;4.33;;
11481;SDS011;5797;51.662;6.748;2023-12-20T03:45:08;13.50;;;4.23;;
11481;SDS011;5797;51.662;6.748;2023-12-20T03:47:39;9.40;;;4.50;;
11481;SDS011;5797;51.662;6.748;2023-12-20T03:50:08;18.67;;;4.77;;
11481;SDS011;5797;51.662;6.748;2023-12-20T03:52:37;10.47;;;4.77;;
11481;SDS011;5797;51.662;6.748;2023-12-20T03:55:05;10.17;;;4.40;;
11481;SDS011;5797;51.662;6.748;2023-12-20T03:57:34;15.97;;;4.40;;
11481;SDS011;5797;51.662;6.748;2023-12-20T04:00:03;16.93;;;4.00;;
11481;SDS011;5797;51.662;6.748;2023-12-20T04:02:41;15.10;;;3.20;;
11481;SDS011;5797;51.662;6.748;2023-12-20T04:05:10;15.60;;;4.10;;
11481;SDS011;5797;51.662;6.748;2023-12-20T04:07:39;8.43;;;3.83;;
11481;SDS011;5797;51.662;6.748;2023-12-20T04:10:08;13.93;;;3.80;;
11481;SDS011;5797;51.662;6.748;2023-12-20T04:12:37;14.10;;;3.73;;
11481;SDS011;5797;51.662;6.748;2023-12-20T04:15:06;8.80;;;3.83;;
11481;SDS011;5797;51.662;6.748;2023-12-20T04:17:39;9.03;;;3.80;;
11481;SDS011;5797;51.662;6.748;2023-12-20T04:20:09;11.53;;;4.40;;
11481;SDS011;5797;51.662;6.748;2023-12-20T04:22:38;10.60;;;4.00;;
11481;SDS011;5797;51.662;6.748;2023-12-20T04:25:07;24.70;;;4.57;;
11481;SDS011;5797;51.662;6.748;2023-12-20T04:27:36;11.00;;;3.87;;
11481;SDS011;5797;51.662;6.748;2023-12-20T04:30:06;10.77;;;3.77;;
11481;SDS011;5797;51.662;6.748;2023-12-20T04:32:36;13.60;;;3.97;;
11481;SDS011;5797;51.662;6.748;2023-12-20T04:35:05;16.30;;;3.43;;
11481;SDS011;5797;51.662;6.748;2023-12-20T04:37:37;12.80;;;3.57;;
11481;SDS011;5797;51.662;6.748;2023-12-20T04:40:06;10.97;;;3.40;;
11481;SDS011;5797;51.662;6.748;2023-12-20T04:42:36;9.97;;;3.23;;
11481;SDS011;5797;51.662;6.748;2023-12-20T04:45:05;14.17;;;2.97;;
11481;SDS011;5797;51.662;6.748;2023-12-20T04:47:34;10.93;;;3.27;;
11481;SDS011;5797;51.662;6.748;2023-12-20T04:50:03;15.03;;;3.70;;
11481;SDS011;5797;51.662;6.748;2023-12-20T04:52:33;16.40;;;4.60;;
11481;SDS011;5797;51.662;6.748;2023-12-20T04:55:04;8.30;;;3.17;;
11481;SDS011;5797;51.662;6.748;2023-12-20T04:57:33;12.37;;;3.23;;
11481;SDS011;5797;51.662;6.748;2023-12-20T05:00:02;11.70;;;3.30;;
11481;SDS011;5797;51.662;6.748;2023-12-20T05:02:31;12.27;;;3.37;;
11481;SDS011;5797;51.662;6.748;2023-12-20T05:05:00;11.70;;;3.40;;
11481;SDS011;5797;51.662;6.748;2023-12-20T05:07:29;7.10;;;2.73;;
11481;SDS011;5797;51.662;6.748;2023-12-20T05:09:58;8.07;;;3.30;;
11481;SDS011;5797;51.662;6.748;2023-12-20T05:12:28;7.83;;;3.17;;
11481;SDS011;5797;51.662;6.748;2023-12-20T05:14:57;18.63;;;3.67;;
11481;SDS011;5797;51.662;6.748;2023-12-20T05:17:26;9.50;;;3.27;;
11481;SDS011;5797;51.662;6.748;2023-12-20T05:19:55;6.93;;;3.47;;
11481;SDS011;5797;51.662;6.748;2023-12-20T05:22:24;13.00;;;3.33;;
11481;SDS011;5797;51.662;6.748;2023-12-20T05:24:52;7.63;;;3.60;;
11481;SDS011;5797;51.662;6.748;2023-12-20T05:27:21;12.00;;;3.37;;
11481;SDS011;5797;51.662;6.748;2023-12-20T05:29:51;15.23;;;3.87;;
11481;SDS011;5797;51.662;6.748;2023-12-20T05:32:20;5.60;;;3.17;;
11481;SDS011;5797;51.662;6.748;2023-12-20T05:34:48;11.87;;;3.43;;
11481;SDS011;5797;51.662;6.748;2023-12-20T05:37:17;5.93;;;3.30;;
11481;SDS011;5797;51.662;6.748;2023-12-20T05:39:45;17.50;;;3.97;;
11481;SDS011;5797;51.662;6.748;2023-12-20T05:42:14;13.07;;;4.27;;
11481;SDS011;5797;51.662;6.748;2023-12-20T05:44:43;13.27;;;3.80;;
11481;SDS011;5797;51.662;6.748;2023-12-20T05:47:13;14.53;;;3.80;;
11481;SDS011;5797;51.662;6.748;2023-12-20T05:49:41;11.03;;;4.13;;
11481;SDS011;5797;51.662;6.748;2023-12-20T05:52:10;18.67;;;4.40;;
11481;SDS011;5797;51.662;6.748;2023-12-20T05:54:39;13.83;;;4.10;;
11481;SDS011;5797;51.662;6.748;2023-12-20T05:57:08;23.80;;;4.43;;
11481;SDS011;5797;51.662;6.748;2023-12-20T05:59:37;17.53;;;5.07;;
11481;SDS011;5797;51.662;6.748;2023-12-20T06:02:05;14.77;;;4.73;;
11481;SDS011;5797;51.662;6.748;2023-12-20T06:04:35;19.40;;;5.17;;
11481;SDS011;5797;51.662;6.748;2023-12-20T06:07:04;13.80;;;4.80;;
11481;SDS011;5797;51.662;6.748;2023-12-20T06:09:33;19.90;;;4.30;;
11481;SDS011;5797;51.662;6.748;2023-12-20T06:12:03;18.20;;;6.27;;
11481;SDS011;5797;51.662;6.748;2023-12-20T06:14:32;18.17;;;4.83;;
11481;SDS011;5797;51.662;6.748;2023-12-20T06:17:01;12.90;;;6.00;;
11481;SDS011;5797;51.662;6.748;2023-12-20T06:19:30;13.73;;;5.03;;
11481;SDS011;5797;51.662;6.748;2023-12-20T06:22:01;15.90;;;5.27;;
11481;SDS011;5797;51.662;6.748;2023-12-20T06:24:30;16.67;;;5.07;;
11481;SDS011;5797;51.662;6.748;2023-12-20T06:27:01;13.70;;;4.83;;
11481;SDS011;5797;51.662;6.748;2023-12-20T06:29:29;16.47;;;5.73;;
11481;SDS011;5797;51.662;6.748;2023-12-20T06:31:58;23.63;;;6.20;;
11481;SDS011;5797;51.662;6.748;2023-12-20T06:34:27;17.97;;;5.73;;
11481;SDS011;5797;51.662;6.748;2023-12-20T06:37:01;22.17;;;5.93;;
11481;SDS011;5797;51.662;6.748;2023-12-20T06:39:32;14.03;;;6.43;;
11481;SDS011;5797;51.662;6.748;2023-12-20T06:42:02;18.83;;;5.67;;
11481;SDS011;5797;51.662;6.748;2023-12-20T06:44:31;22.13;;;6.50;;
11481;SDS011;5797;51.662;6.748;2023-12-20T06:46:59;18.00;;;5.70;;
11481;SDS011;5797;51.662;6.748;2023-12-20T06:49:28;22.87;;;6.07;;
11481;SDS011;5797;51.662;6.748;2023-12-20T06:51:58;16.07;;;5.43;;
11481;SDS011;5797;51.662;6.748;2023-12-20T06:54:28;17.67;;;4.80;;
11481;SDS011;5797;51.662;6.748;2023-12-20T06:56:57;15.73;;;5.03;;
11481;SDS011;5797;51.662;6.748;2023-12-20T06:59:25;19.10;;;5.77;;
11481;SDS011;5797;51.662;6.748;2023-12-20T07:01:54;15.50;;;5.13;;
11481;SDS011;5797;51.662;6.748;2023-12-20T07:04:23;21.30;;;4.97;;
11481;SDS011;5797;51.662;6.748;2023-12-20T07:06:51;14.93;;;5.20;;
11481;SDS011;5797;51.662;6.748;2023-12-20T07:09:24;18.73;;;4.83;;
11481;SDS011;5797;51.662;6.748;2023-12-20T07:11:54;18.03;;;5.50;;
11481;SDS011;5797;51.662;6.748;2023-12-20T07:14:22;17.10;;;3.83;;
11481;SDS011;5797;51.662;6.748;2023-12-20T07:16:51;11.30;;;4.37;;
11481;SDS011;5797;51.662;6.748;2023-12-20T07:19:20;15.33;;;4.57;;
11481;SDS011;5797;51.662;6.748;2023-12-20T07:21:48;14.60;;;4.57;;
11481;SDS011;5797;51.662;6.748;2023-12-20T07:24:17;18.23;;;4.93;;
11481;SDS011;5797;51.662;6.748;2023-12-20T07:26:46;16.40;;;5.07;;
11481;SDS011;5797;51.662;6.748;2023-12-20T07:29:16;24.60;;;5.17;;
11481;SDS011;5797;51.662;6.748;2023-12-20T07:31:45;14.63;;;5.03;;
11481;SDS011;5797;51.662;6.748;2023-12-20T07:34:14;21.40;;;5.10;;
11481;SDS011;5797;51.662;6.748;2023-12-20T07:36:42;17.10;;;4.43;;
11481;SDS011;5797;51.662;6.748;2023-12-20T07:39:12;13.40;;;4.07;;
11481;SDS011;5797;51.662;6.748;2023-12-20T07:41:41;12.13;;;4.03;;
11481;SDS011;5797;51.662;6.748;2023-12-20T07:44:11;15.03;;;4.53;;
11481;SDS011;5797;51.662;6.748;2023-12-20T07:46:41;16.67;;;5.20;;
11481;SDS011;5797;51.662;6.748;2023-12-20T07:49:10;16.00;;;5.27;;
11481;SDS011;5797;51.662;6.748;2023-12-20T07:51:40;10.07;;;3.93;;
11481;SDS011;5797;51.662;6.748;2023-12-20T07:54:08;23.83;;;4.70;;
11481;SDS011;5797;51.662;6.748;2023-12-20T07:56:37;12.00;;;4.23;;
11481;SDS011;5797;51.662;6.748;2023-12-20T07:59:10;17.03;;;4.30;;
11481;SDS011;5797;51.662;6.748;2023-12-20T08:01:46;13.87;;;4.90;;
11481;SDS011;5797;51.662;6.748;2023-12-20T08:04:15;21.57;;;5.80;;
11481;SDS011;5797;51.662;6.748;2023-12-20T08:06:44;11.20;;;4.80;;
11481;SDS011;5797;51.662;6.748;2023-12-20T08:09:13;14.87;;;4.63;;
11481;SDS011;5797;51.662;6.748;2023-12-20T08:11:44;19.43;;;4.87;;
11481;SDS011;5797;51.662;6.748;2023-12-20T08:14:13;24.70;;;4.10;;
11481;SDS011;5797;51.662;6.748;2023-12-20T08:16:46;18.87;;;4.67;;
11481;SDS011;5797;51.662;6.748;2023-12-20T08:19:15;11.97;;;4.70;;
11481;SDS011;5797;51.662;6.748;2023-12-20T08:21:44;13.97;;;5.00;;
11481;SDS011;5797;51.662;6.748;2023-12-20T08:24:13;18.17;;;4.80;;
11481;SDS011;5797;51.662;6.748;2023-12-20T08:26:42;14.40;;;4.60;;
11481;SDS011;5797;51.662;6.748;2023-12-20T08:29:12;15.27;;;4.67;;
11481;SDS011;5797;51.662;6.748;2023-12-20T08:31:41;14.60;;;4.97;;
11481;SDS011;5797;51.662;6.748;2023-12-20T08:34:11;18.27;;;5.60;;
11481;SDS011;5797;51.662;6.748;2023-12-20T08:36:42;12.43;;;4.53;;
11481;SDS011;5797;51.662;6.748;2023-12-20T08:39:10;12.07;;;4.70;;
11481;SDS011;5797;51.662;6.748;2023-12-20T08:41:39;19.50;;;5.03;;
11481;SDS011;5797;51.662;6.748;2023-12-20T08:44:08;13.23;;;3.80;;
11481;SDS011;5797;51.662;6.748;2023-12-20T08:46:36;17.57;;;4.77;;
11481;SDS011;5797;51.662;6.748;2023-12-20T08:49:05;16.70;;;4.67;;
11481;SDS011;5797;51.662;6.748;2023-12-20T08:51:35;12.63;;;4.30;;
11481;SDS011;5797;51.662;6.748;2023-12-20T08:54:07;20.77;;;4.27;;
11481;SDS011;5797;51.662;6.748;2023-12-20T08:56:36;9.53;;;4.10;;
11481;SDS011;5797;51.662;6.748;2023-12-20T08:59:04;22.60;;;4.70;;
11481;SDS011;5797;51.662;6.748;2023-12-20T09:01:33;17.83;;;4.43;;
11481;SDS011;5797;51.662;6.748;2023-12-20T09:04:02;17.97;;;4.33;;
11481;SDS011;5797;51.662;6.748;2023-12-20T09:06:31;16.97;;;4.37;;
11481;SDS011;5797;51.662;6.748;2023-12-20T09:09:01;13.93;;;4.57;;
11481;SDS011;5797;51.662;6.748;2023-12-20T09:11:30;14.03;;;3.83;;
11481;SDS011;5797;51.662;6.748;2023-12-20T09:13:59;14.70;;;4.40;;
11481;SDS011;5797;51.662;6.748;2023-12-20T09:16:28;20.80;;;3.80;;
11481;SDS011;5797;51.662;6.748;2023-12-20T09:18:58;15.10;;;4.23;;
11481;SDS011;5797;51.662;6.748;2023-12-20T09:21:27;19.27;;;3.63;;
11481;SDS011;5797;51.662;6.748;2023-12-20T09:23:55;15.20;;;3.70;;
11481;SDS011;5797;51.662;6.748;2023-12-20T09:26:25;13.10;;;3.70;;
11481;SDS011;5797;51.662;6.748;2023-12-20T09:28:54;12.27;;;4.00;;
11481;SDS011;5797;51.662;6.748;2023-12-20T09:31:23;13.93;;;3.57;;
11481;SDS011;5797;51.662;6.748;2023-12-20T09:33:51;14.43;;;3.80;;
11481;SDS011;5797;51.662;6.748;2023-12-20T09:36:20;13.67;;;3.80;;
11481;SDS011;5797;51.662;6.748;2023-12-20T09:38:49;19.07;;;3.67;;
11481;SDS011;5797;51.662;6.748;2023-12-20T09:41:21;18.73;;;4.10;;
11481;SDS011;5797;51.662;6.748;2023-12-20T09:43:53;17.50;;;4.20;;
11481;SDS011;5797;51.662;6.748;2023-12-20T09:46:23;7.67;;;3.77;;
11481;SDS011;5797;51.662;6.748;2023-12-20T09:48:53;11.80;;;3.17;;
11481;SDS011;5797;51.662;6.748;2023-12-20T09:51:22;14.63;;;3.67;;
11481;SDS011;5797;51.662;6.748;2023-12-20T09:53:52;9.10;;;3.50;;
11481;SDS011;5797;51.662;6.748;2023-12-20T09:56:23;11.60;;;4.40;;
11481;SDS011;5797;51.662;6.748;2023-12-20T09:58:55;10.70;;;3.83;;
11481;SDS011;5797;51.662;6.748;2023-12-20T10:01:24;10.53;;;3.30;;
11481;SDS011;5797;51.662;6.748;2023-12-20T10:03:54;9.77;;;4.60;;
11481;SDS011;5797;51.662;6.748;2023-12-20T10:06:23;12.47;;;3.60;;
11481;SDS011;5797;51.662;6.748;2023-12-20T10:08:52;12.47;;;4.33;;
11481;SDS011;5797;51.662;6.748;2023-12-20T10:11:21;16.07;;;3.93;;
11481;SDS011;5797;51.662;6.748;2023-12-20T10:13:50;16.00;;;3.83;;
11481;SDS011;5797;51.662;6.748;2023-12-20T10:16:20;13.63;;;4.17;;
11481;SDS011;5797;51.662;6.748;2023-12-20T10:18:52;10.13;;;3.97;;
11481;SDS011;5797;51.662;6.748;2023-12-20T10:21:22;12.17;;;3.87;;
11481;SDS011;5797;51.662;6.748;2023-12-20T10:23:51;15.03;;;5.10;;
11481;SDS011;5797;51.662;6.748;2023-12-20T10:26:20;13.40;;;4.47;;
11481;SDS011;5797;51.662;6.748;2023-12-20T10:28:50;11.77;;;4.23;;
11481;SDS011;5797;51.662;6.748;2023-12-20T10:31:28;13.23;;;3.73;;
11481;SDS011;5797;51.662;6.748;2023-12-20T10:33:58;18.07;;;4.97;;
11481;SDS011;5797;51.662;6.748;2023-12-20T10:36:28;16.27;;;4.30;;
11481;SDS011;5797;51.662;6.748;2023-12-20T10:38:59;14.97;;;4.77;;
11481;SDS011;5797;51.662;6.748;2023-12-20T10:41:29;11.63;;;4.40;;
11481;SDS011;5797;51.662;6.748;2023-12-20T10:43:59;14.57;;;3.97;;
11481;SDS011;5797;51.662;6.748;2023-12-20T10:46:31;13.67;;;4.90;;
11481;SDS011;5797;51.662;6.748;2023-12-20T10:49:01;14.23;;;3.90;;
11481;SDS011;5797;51.662;6.748;2023-12-20T10:51:31;17.73;;;4.30;;
11481;SDS011;5797;51.662;6.748;2023-12-20T10:54:00;15.07;;;4.53;;
11481;SDS011;5797;51.662;6.748;2023-12-20T10:56:29;10.00;;;3.83;;
11481;SDS011;5797;51.662;6.748;2023-12-20T10:59:01;12.60;;;4.23;;
11481;SDS011;5797;51.662;6.748;2023-12-20T11:01:33;18.83;;;3.90;;
11481;SDS011;5797;51.662;6.748;2023-12-20T11:04:04;10.50;;;4.00;;
11481;SDS011;5797;51.662;6.748;2023-12-20T11:06:36;13.07;;;4.07;;
11481;SDS011;5797;51.662;6.748;2023-12-20T11:09:11;10.00;;;3.67;;
11481;SDS011;5797;51.662;6.748;2023-12-20T11:11:47;16.70;;;3.90;;
11481;SDS011;5797;51.662;6.748;2023-12-20T11:14:25;13.47;;;3.70;;
11481;SDS011;5797;51.662;6.748;2023-12-20T11:17:08;12.00;;;4.00;;
11481;SDS011;5797;51.662;6.748;2023-12-20T11:19:38;13.43;;;4.80;;
11481;SDS011;5797;51.662;6.748;2023-12-20T11:22:29;14.30;;;4.00;;
11481;SDS011;5797;51.662;6.748;2023-12-20T11:25:02;13.23;;;3.77;;
11481;SDS011;5797;51.662;6.748;2023-12-20T11:27:33;15.73;;;4.13;;
11481;SDS011;5797;51.662;6.748;2023-12-20T11:30:03;16.73;;;3.80;;
11481;SDS011;5797;51.662;6.748;2023-12-20T11:32:36;20.67;;;4.60;;
11481;SDS011;5797;51.662;6.748;2023-12-20T11:35:16;10.63;;;3.70;;
11481;SDS011;5797;51.662;6.748;2023-12-20T11:37:48;23.03;;;4.53;;
11481;SDS011;5797;51.662;6.748;2023-12-20T11:40:17;11.87;;;4.07;;
11481;SDS011;5797;51.662;6.748;2023-12-20T11:42:48;14.80;;;4.50;;
11481;SDS011;5797;51.662;6.748;2023-12-20T11:45:18;14.70;;;4.10;;
11481;SDS011;5797;51.662;6.748;2023-12-20T11:47:50;13.83;;;3.90;;
11481;SDS011;5797;51.662;6.748;2023-12-20T11:50:21;12.03;;;4.17;;
11481;SDS011;5797;51.662;6.748;2023-12-20T11:52:51;10.07;;;3.93;;
11481;SDS011;5797;51.662;6.748;2023-12-20T11:55:20;10.73;;;3.63;;
11481;SDS011;5797;51.662;6.748;2023-12-20T11:57:52;10.97;;;4.00;;
11481;SDS011;5797;51.662;6.748;2023-12-20T12:00:22;15.10;;;4.33;;
11481;SDS011;5797;51.662;6.748;2023-12-20T12:02:57;9.60;;;4.27;;
11481;SDS011;5797;51.662;6.748;2023-12-20T12:05:26;8.53;;;4.17;;
11481;SDS011;5797;51.662;6.748;2023-12-20T12:07:55;11.03;;;4.20;;
11481;SDS011;5797;51.662;6.748;2023-12-20T12:10:24;8.40;;;3.73;;
11481;SDS011;5797;51.662;6.748;2023-12-20T12:12:53;10.60;;;4.17;;
11481;SDS011;5797;51.662;6.748;2023-12-20T12:15:22;15.43;;;4.30;;
11481;SDS011;5797;51.662;6.748;2023-12-20T12:17:53;18.10;;;5.20;;
11481;SDS011;5797;51.662;6.748;2023-12-20T12:20:24;10.63;;;4.93;;
11481;SDS011;5797;51.662;6.748;2023-12-20T12:23:00;14.10;;;3.70;;
11481;SDS011;5797;51.662;6.748;2023-12-20T12:25:29;8.90;;;4.40;;
11481;SDS011;5797;51.662;6.748;2023-12-20T12:27:59;15.97;;;4.50;;
11481;SDS011;5797;51.662;6.748;2023-12-20T12:30:28;11.57;;;3.90;;
11481;SDS011;5797;51.662;6.748;2023-12-20T12:33:02;13.90;;;5.13;;
11481;SDS011;5797;51.662;6.748;2023-12-20T12:35:33;11.20;;;3.90;;
11481;SDS011;5797;51.662;6.748;2023-12-20T12:38:02;11.63;;;3.97;;
11481;SDS011;5797;51.662;6.748;2023-12-20T12:40:34;13.60;;;4.47;;
11481;SDS011;5797;51.662;6.748;2023-12-20T12:43:03;13.07;;;4.63;;
11481;SDS011;5797;51.662;6.748;2023-12-20T12:45:33;13.67;;;4.07;;
11481;SDS011;5797;51.662;6.748;2023-12-20T12:48:03;13.33;;;4.10;;
11481;SDS011;5797;51.662;6.748;2023-12-20T12:50:34;16.13;;;4.43;;
11481;SDS011;5797;51.662;6.748;2023-12-20T12:53:03;10.40;;;4.60;;
11481;SDS011;5797;51.662;6.748;2023-12-20T12:55:32;13.40;;;4.60;;
11481;SDS011;5797;51.662;6.748;2023-12-20T12:58:02;15.67;;;4.73;;
11481;SDS011;5797;51.662;6.748;2023-12-20T13:00:30;15.50;;;4.70;;
11481;SDS011;5797;51.662;6.748;2023-12-20T13:02:59;12.33;;;4.53;;
11481;SDS011;5797;51.662;6.748;2023-12-20T13:05:28;21.40;;;7.43;;
11481;SDS011;5797;51.662;6.748;2023-12-20T13:08:03;13.93;;;5.20;;
11481;SDS011;5797;51.662;6.748;2023-12-20T13:10:32;11.73;;;5.43;;
11481;SDS011;5797;51.662;6.748;2023-12-20T13:13:01;21.33;;;4.90;;
11481;SDS011;5797;51.662;6.748;2023-12-20T13:15:31;15.33;;;5.10;;
11481;SDS011;5797;51.662;6.748;2023-12-20T13:17:59;12.37;;;4.33;;
11481;SDS011;5797;51.662;6.748;2023-12-20T13:20:28;12.80;;;4.40;;
11481;SDS011;5797;51.662;6.748;2023-12-20T13:22:57;12.23;;;4.93;;
11481;SDS011;5797;51.662;6.748;2023-12-20T13:25:28;17.27;;;4.97;;
11481;SDS011;5797;51.662;6.748;2023-12-20T13:27:56;9.27;;;4.80;;
11481;SDS011;5797;51.662;6.748;2023-12-20T13:30:26;13.77;;;5.00;;
11481;SDS011;5797;51.662;6.748;2023-12-20T13:32:55;8.67;;;4.50;;
11481;SDS011;5797;51.662;6.748;2023-12-20T13:35:23;12.87;;;4.63;;
11481;SDS011;5797;51.662;6.748;2023-12-20T13:37:52;11.67;;;4.17;;
11481;SDS011;5797;51.662;6.748;2023-12-20T13:40:23;15.40;;;4.93;;
11481;SDS011;5797;51.662;6.748;2023-12-20T13:42:53;8.80;;;4.17;;
11481;SDS011;5797;51.662;6.748;2023-12-20T13:45:22;10.73;;;4.87;;
11481;SDS011;5797;51.662;6.748;2023-12-20T13:47:52;10.50;;;5.30;;
11481;SDS011;5797;51.662;6.748;2023-12-20T13:50:21;10.40;;;4.57;;
11481;SDS011;5797;51.662;6.748;2023-12-20T13:52:50;10.33;;;5.10;;
11481;SDS011;5797;51.662;6.748;2023-12-20T13:55:19;18.13;;;5.23;;
11481;SDS011;5797;51.662;6.748;2023-12-20T13:57:53;8.50;;;4.07;;
11481;SDS011;5797;51.662;6.748;2023-12-20T14:00:22;16.43;;;5.13;;
11481;SDS011;5797;51.662;6.748;2023-12-20T14:02:51;16.37;;;4.97;;
11481;SDS011;5797;51.662;6.748;2023-12-20T14:05:20;15.60;;;5.40;;
11481;SDS011;5797;51.662;6.748;2023-12-20T14:07:53;11.83;;;4.67;;
11481;SDS011;5797;51.662;6.748;2023-12-20T14:10:21;9.27;;;4.20;;
11481;SDS011;5797;51.662;6.748;2023-12-20T14:12:50;10.23;;;4.67;;
11481;SDS011;5797;51.662;6.748;2023-12-20T14:15:20;16.63;;;4.77;;
11481;SDS011;5797;51.662;6.748;2023-12-20T14:17:52;12.50;;;4.57;;
11481;SDS011;5797;51.662;6.748;2023-12-20T14:20:22;13.70;;;4.57;;
11481;SDS011;5797;51.662;6.748;2023-12-20T14:22:50;7.77;;;3.90;;
11481;SDS011;5797;51.662;6.748;2023-12-20T14:25:19;10.87;;;4.47;;
11481;SDS011;5797;51.662;6.748;2023-12-20T14:27:50;12.23;;;4.83;;
11481;SDS011;5797;51.662;6.748;2023-12-20T14:30:20;8.00;;;4.40;;
11481;SDS011;5797;51.662;6.748;2023-12-20T14:32:49;18.47;;;5.37;;
11481;SDS011;5797;51.662;6.748;2023-12-20T14:35:18;10.50;;;4.50;;
11481;SDS011;5797;51.662;6.748;2023-12-20T14:37:47;12.90;;;5.57;;
11481;SDS011;5797;51.662;6.748;2023-12-20T14:40:17;12.67;;;5.90;;
11481;SDS011;5797;51.662;6.748;2023-12-20T14:42:46;13.17;;;5.73;;
11481;SDS011;5797;51.662;6.748;2023-12-20T14:45:15;16.70;;;5.43;;
11481;SDS011;5797;51.662;6.748;2023-12-20T14:47:46;13.10;;;5.50;;
11481;SDS011;5797;51.662;6.748;2023-12-20T14:50:16;20.37;;;5.73;;
11481;SDS011;5797;51.662;6.748;2023-12-20T14:52:46;12.70;;;5.17;;
11481;SDS011;5797;51.662;6.748;2023-12-20T14:55:14;7.93;;;4.60;;
11481;SDS011;5797;51.662;6.748;2023-12-20T14:57:44;17.27;;;5.67;;
11481;SDS011;5797;51.662;6.748;2023-12-20T15:00:13;11.33;;;5.73;;
11481;SDS011;5797;51.662;6.748;2023-12-20T15:02:44;12.03;;;5.77;;